sensor_id;sensor_type;location;lat;lon;timestamp;P1;durP1;ratioP1;P2;durP2;ratioP2
29848;SDS011;16728;50.832;5.590;2023-09-07T00:01:11;11.27;;;8.00;;
29848;SDS011;16728;50.832;5.590;2023-09-07T00:07:16;11.07;;;8.60;;
29848;SDS011;16728;50.832;5.590;2023-09-07T00:10:18;10.05;;;8.68;;
29848;SDS011;16728;50.832;5.590;2023-09-07T00:13:20;11.05;;;8.13;;
29848;SDS011;16728;50.832;5.590;2023-09-07T00:16:22;13.20;;;8.70;;
29848;SDS011;16728;50.832;5.590;2023-09-07T00:19:24;12.32;;;8.80;;
29848;SDS011;16728;50.832;5.590;2023-09-07T00:22:26;10.43;;;8.63;;
29848;SDS011;16728;50.832;5.590;2023-09-07T00:25:28;11.90;;;8.35;;
29848;SDS011;16728;50.832;5.590;2023-09-07T00:28:30;10.90;;;7.60;;
29848;SDS011;16728;50.832;5.590;2023-09-07T00:31:33;13.02;;;8.23;;
29848;SDS011;16728;50.832;5.590;2023-09-07T00:34:35;11.43;;;8.77;;
29848;SDS011;16728;50.832;5.590;2023-09-07T00:37:37;13.15;;;8.40;;
29848;SDS011;16728;50.832;5.590;2023-09-07T00:40:42;10.88;;;7.97;;
29848;SDS011;16728;50.832;5.590;2023-09-07T00:43:46;10.82;;;8.32;;
29848;SDS011;16728;50.832;5.590;2023-09-07T00:46:48;9.50;;;7.78;;
29848;SDS011;16728;50.832;5.590;2023-09-07T00:49:50;12.68;;;8.30;;
29848;SDS011;16728;50.832;5.590;2023-09-07T00:52:53;9.88;;;7.88;;
29848;SDS011;16728;50.832;5.590;2023-09-07T00:55:56;14.15;;;8.35;;
29848;SDS011;16728;50.832;5.590;2023-09-07T00:59:00;15.48;;;8.15;;
29848;SDS011;16728;50.832;5.590;2023-09-07T01:02:02;10.68;;;7.95;;
29848;SDS011;16728;50.832;5.590;2023-09-07T01:05:07;10.88;;;8.80;;
29848;SDS011;16728;50.832;5.590;2023-09-07T01:08:15;11.05;;;8.35;;
29848;SDS011;16728;50.832;5.590;2023-09-07T01:11:26;9.57;;;8.57;;
29848;SDS011;16728;50.832;5.590;2023-09-07T01:14:28;11.32;;;9.05;;
29848;SDS011;16728;50.832;5.590;2023-09-07T01:17:30;11.23;;;8.50;;
29848;SDS011;16728;50.832;5.590;2023-09-07T01:20:32;11.37;;;8.67;;
29848;SDS011;16728;50.832;5.590;2023-09-07T01:23:36;11.05;;;8.57;;
29848;SDS011;16728;50.832;5.590;2023-09-07T01:26:41;11.70;;;8.20;;
29848;SDS011;16728;50.832;5.590;2023-09-07T01:29:44;10.82;;;8.43;;
29848;SDS011;16728;50.832;5.590;2023-09-07T01:32:46;14.73;;;8.70;;
29848;SDS011;16728;50.832;5.590;2023-09-07T01:35:48;11.18;;;8.38;;
29848;SDS011;16728;50.832;5.590;2023-09-07T01:38:50;8.93;;;7.28;;
29848;SDS011;16728;50.832;5.590;2023-09-07T01:41:52;10.02;;;7.90;;
29848;SDS011;16728;50.832;5.590;2023-09-07T01:44:53;13.73;;;8.70;;
29848;SDS011;16728;50.832;5.590;2023-09-07T01:47:57;10.80;;;8.43;;
29848;SDS011;16728;50.832;5.590;2023-09-07T01:51:00;14.13;;;8.30;;
29848;SDS011;16728;50.832;5.590;2023-09-07T01:54:06;13.38;;;8.43;;
29848;SDS011;16728;50.832;5.590;2023-09-07T01:57:08;18.90;;;8.57;;
29848;SDS011;16728;50.832;5.590;2023-09-07T02:00:10;11.68;;;8.05;;
29848;SDS011;16728;50.832;5.590;2023-09-07T02:03:13;11.95;;;7.75;;
29848;SDS011;16728;50.832;5.590;2023-09-07T02:06:15;10.52;;;8.48;;
29848;SDS011;16728;50.832;5.590;2023-09-07T02:09:17;9.23;;;7.80;;
29848;SDS011;16728;50.832;5.590;2023-09-07T02:12:19;13.85;;;8.23;;
29848;SDS011;16728;50.832;5.590;2023-09-07T02:15:21;12.00;;;8.80;;
29848;SDS011;16728;50.832;5.590;2023-09-07T02:18:23;9.40;;;8.40;;
29848;SDS011;16728;50.832;5.590;2023-09-07T02:21:25;12.93;;;8.82;;
29848;SDS011;16728;50.832;5.590;2023-09-07T02:24:27;9.52;;;8.52;;
29848;SDS011;16728;50.832;5.590;2023-09-07T02:27:29;10.98;;;8.95;;
29848;SDS011;16728;50.832;5.590;2023-09-07T02:30:31;12.10;;;10.00;;
29848;SDS011;16728;50.832;5.590;2023-09-07T02:33:34;13.13;;;10.02;;
29848;SDS011;16728;50.832;5.590;2023-09-07T02:36:36;12.23;;;10.63;;
29848;SDS011;16728;50.832;5.590;2023-09-07T02:39:38;12.77;;;10.43;;
29848;SDS011;16728;50.832;5.590;2023-09-07T02:42:41;13.95;;;10.50;;
29848;SDS011;16728;50.832;5.590;2023-09-07T02:45:44;14.68;;;10.95;;
29848;SDS011;16728;50.832;5.590;2023-09-07T02:48:46;15.02;;;13.15;;
29848;SDS011;16728;50.832;5.590;2023-09-07T02:51:49;15.50;;;13.50;;
29848;SDS011;16728;50.832;5.590;2023-09-07T02:54:51;17.20;;;13.38;;
29848;SDS011;16728;50.832;5.590;2023-09-07T02:57:52;18.55;;;13.38;;
29848;SDS011;16728;50.832;5.590;2023-09-07T03:00:56;14.52;;;12.23;;
29848;SDS011;16728;50.832;5.590;2023-09-07T03:03:59;13.83;;;12.40;;
29848;SDS011;16728;50.832;5.590;2023-09-07T03:07:01;14.48;;;10.90;;
29848;SDS011;16728;50.832;5.590;2023-09-07T03:10:03;16.77;;;11.35;;
29848;SDS011;16728;50.832;5.590;2023-09-07T03:13:06;12.00;;;10.80;;
29848;SDS011;16728;50.832;5.590;2023-09-07T03:16:09;13.55;;;10.98;;
29848;SDS011;16728;50.832;5.590;2023-09-07T03:19:12;13.60;;;11.50;;
29848;SDS011;16728;50.832;5.590;2023-09-07T03:22:14;15.48;;;11.43;;
29848;SDS011;16728;50.832;5.590;2023-09-07T03:25:16;16.20;;;12.07;;
29848;SDS011;16728;50.832;5.590;2023-09-07T03:28:19;13.37;;;12.07;;
29848;SDS011;16728;50.832;5.590;2023-09-07T03:31:21;13.18;;;11.80;;
29848;SDS011;16728;50.832;5.590;2023-09-07T03:34:23;17.83;;;13.10;;
29848;SDS011;16728;50.832;5.590;2023-09-07T03:37:25;15.23;;;12.00;;
29848;SDS011;16728;50.832;5.590;2023-09-07T03:40:30;14.95;;;11.80;;
29848;SDS011;16728;50.832;5.590;2023-09-07T03:43:32;14.65;;;11.77;;
29848;SDS011;16728;50.832;5.590;2023-09-07T03:46:34;15.50;;;12.55;;
29848;SDS011;16728;50.832;5.590;2023-09-07T03:49:37;14.95;;;13.35;;
29848;SDS011;16728;50.832;5.590;2023-09-07T03:52:39;16.58;;;14.25;;
29848;SDS011;16728;50.832;5.590;2023-09-07T03:55:41;17.90;;;14.55;;
29848;SDS011;16728;50.832;5.590;2023-09-07T03:58:44;17.75;;;14.25;;
29848;SDS011;16728;50.832;5.590;2023-09-07T04:01:48;17.58;;;14.48;;
29848;SDS011;16728;50.832;5.590;2023-09-07T04:04:51;21.17;;;13.07;;
29848;SDS011;16728;50.832;5.590;2023-09-07T04:07:54;15.07;;;12.63;;
29848;SDS011;16728;50.832;5.590;2023-09-07T04:10:56;14.35;;;12.93;;
29848;SDS011;16728;50.832;5.590;2023-09-07T04:13:58;13.63;;;12.15;;
29848;SDS011;16728;50.832;5.590;2023-09-07T04:17:00;15.20;;;11.73;;
29848;SDS011;16728;50.832;5.590;2023-09-07T04:20:02;14.75;;;11.32;;
29848;SDS011;16728;50.832;5.590;2023-09-07T04:23:05;15.70;;;12.05;;
29848;SDS011;16728;50.832;5.590;2023-09-07T04:26:07;14.75;;;11.60;;
29848;SDS011;16728;50.832;5.590;2023-09-07T04:29:09;15.70;;;11.27;;
29848;SDS011;16728;50.832;5.590;2023-09-07T04:35:15;13.63;;;10.85;;
29848;SDS011;16728;50.832;5.590;2023-09-07T04:38:17;12.57;;;10.57;;
29848;SDS011;16728;50.832;5.590;2023-09-07T04:41:19;12.20;;;10.57;;
29848;SDS011;16728;50.832;5.590;2023-09-07T04:44:21;13.07;;;11.20;;
29848;SDS011;16728;50.832;5.590;2023-09-07T04:47:23;14.30;;;10.38;;
29848;SDS011;16728;50.832;5.590;2023-09-07T04:50:25;16.23;;;10.73;;
29848;SDS011;16728;50.832;5.590;2023-09-07T04:53:28;15.98;;;10.82;;
29848;SDS011;16728;50.832;5.590;2023-09-07T04:56:31;15.48;;;10.68;;
29848;SDS011;16728;50.832;5.590;2023-09-07T04:59:33;12.20;;;10.88;;
29848;SDS011;16728;50.832;5.590;2023-09-07T05:02:35;16.20;;;11.25;;
29848;SDS011;16728;50.832;5.590;2023-09-07T05:05:42;13.25;;;10.38;;
29848;SDS011;16728;50.832;5.590;2023-09-07T05:08:45;14.10;;;10.43;;
29848;SDS011;16728;50.832;5.590;2023-09-07T05:11:46;14.88;;;10.73;;
29848;SDS011;16728;50.832;5.590;2023-09-07T05:14:48;15.25;;;11.30;;
29848;SDS011;16728;50.832;5.590;2023-09-07T05:17:50;12.00;;;10.40;;
29848;SDS011;16728;50.832;5.590;2023-09-07T05:20:53;16.48;;;11.20;;
29848;SDS011;16728;50.832;5.590;2023-09-07T05:23:55;16.20;;;10.80;;
29848;SDS011;16728;50.832;5.590;2023-09-07T05:26:57;19.17;;;11.15;;
29848;SDS011;16728;50.832;5.590;2023-09-07T05:29:59;13.32;;;11.10;;
29848;SDS011;16728;50.832;5.590;2023-09-07T05:33:01;13.98;;;10.68;;
29848;SDS011;16728;50.832;5.590;2023-09-07T05:36:03;13.48;;;10.98;;
29848;SDS011;16728;50.832;5.590;2023-09-07T05:39:06;15.15;;;11.65;;
29848;SDS011;16728;50.832;5.590;2023-09-07T05:42:08;16.45;;;10.60;;
29848;SDS011;16728;50.832;5.590;2023-09-07T05:45:10;18.05;;;11.45;;
29848;SDS011;16728;50.832;5.590;2023-09-07T05:48:12;17.73;;;11.18;;
29848;SDS011;16728;50.832;5.590;2023-09-07T05:51:18;15.95;;;11.05;;
29848;SDS011;16728;50.832;5.590;2023-09-07T05:54:19;15.60;;;12.15;;
29848;SDS011;16728;50.832;5.590;2023-09-07T05:57:21;20.48;;;13.23;;
29848;SDS011;16728;50.832;5.590;2023-09-07T06:00:24;18.90;;;12.90;;
29848;SDS011;16728;50.832;5.590;2023-09-07T06:03:27;22.05;;;14.50;;
29848;SDS011;16728;50.832;5.590;2023-09-07T06:06:29;16.60;;;13.95;;
29848;SDS011;16728;50.832;5.590;2023-09-07T06:09:31;17.10;;;15.35;;
29848;SDS011;16728;50.832;5.590;2023-09-07T06:12:33;19.38;;;16.58;;
29848;SDS011;16728;50.832;5.590;2023-09-07T06:15:35;24.75;;;17.13;;
29848;SDS011;16728;50.832;5.590;2023-09-07T06:18:37;19.55;;;16.70;;
29848;SDS011;16728;50.832;5.590;2023-09-07T06:21:40;25.65;;;18.65;;
29848;SDS011;16728;50.832;5.590;2023-09-07T06:24:42;25.13;;;18.77;;
29848;SDS011;16728;50.832;5.590;2023-09-07T06:27:44;24.35;;;18.58;;
29848;SDS011;16728;50.832;5.590;2023-09-07T06:30:46;21.85;;;17.52;;
29848;SDS011;16728;50.832;5.590;2023-09-07T06:33:48;20.20;;;17.00;;
29848;SDS011;16728;50.832;5.590;2023-09-07T06:36:50;24.23;;;17.23;;
29848;SDS011;16728;50.832;5.590;2023-09-07T06:39:52;19.33;;;16.52;;
29848;SDS011;16728;50.832;5.590;2023-09-07T06:42:54;25.42;;;18.58;;
29848;SDS011;16728;50.832;5.590;2023-09-07T06:46:06;21.45;;;17.42;;
29848;SDS011;16728;50.832;5.590;2023-09-07T06:49:09;24.50;;;17.02;;
29848;SDS011;16728;50.832;5.590;2023-09-07T06:52:11;31.47;;;17.00;;
29848;SDS011;16728;50.832;5.590;2023-09-07T06:55:14;22.95;;;16.58;;
29848;SDS011;16728;50.832;5.590;2023-09-07T06:58:17;23.93;;;16.73;;
29848;SDS011;16728;50.832;5.590;2023-09-07T07:01:19;21.42;;;15.52;;
29848;SDS011;16728;50.832;5.590;2023-09-07T07:04:21;21.08;;;14.40;;
29848;SDS011;16728;50.832;5.590;2023-09-07T07:07:23;22.45;;;15.60;;
29848;SDS011;16728;50.832;5.590;2023-09-07T07:10:25;21.23;;;15.68;;
29848;SDS011;16728;50.832;5.590;2023-09-07T07:13:27;19.90;;;13.52;;
29848;SDS011;16728;50.832;5.590;2023-09-07T07:16:29;20.30;;;12.18;;
29848;SDS011;16728;50.832;5.590;2023-09-07T07:19:31;17.52;;;11.18;;
29848;SDS011;16728;50.832;5.590;2023-09-07T07:22:33;13.13;;;10.90;;
29848;SDS011;16728;50.832;5.590;2023-09-07T07:28:39;14.55;;;11.25;;
29848;SDS011;16728;50.832;5.590;2023-09-07T07:31:41;14.77;;;11.02;;
29848;SDS011;16728;50.832;5.590;2023-09-07T07:34:43;15.18;;;11.75;;
29848;SDS011;16728;50.832;5.590;2023-09-07T07:37:45;15.63;;;10.82;;
29848;SDS011;16728;50.832;5.590;2023-09-07T07:40:47;17.23;;;11.50;;
29848;SDS011;16728;50.832;5.590;2023-09-07T07:46:53;17.88;;;11.85;;
29848;SDS011;16728;50.832;5.590;2023-09-07T07:49:56;17.17;;;11.57;;
29848;SDS011;16728;50.832;5.590;2023-09-07T07:52:58;16.30;;;10.77;;
29848;SDS011;16728;50.832;5.590;2023-09-07T07:56:00;16.67;;;11.00;;
29848;SDS011;16728;50.832;5.590;2023-09-07T07:59:02;16.00;;;10.95;;
29848;SDS011;16728;50.832;5.590;2023-09-07T08:02:04;16.50;;;10.60;;
29848;SDS011;16728;50.832;5.590;2023-09-07T08:05:07;18.33;;;10.85;;
29848;SDS011;16728;50.832;5.590;2023-09-07T08:08:09;11.13;;;9.32;;
29848;SDS011;16728;50.832;5.590;2023-09-07T08:11:11;12.82;;;9.68;;
29848;SDS011;16728;50.832;5.590;2023-09-07T08:14:13;15.57;;;10.32;;
29848;SDS011;16728;50.832;5.590;2023-09-07T08:17:15;13.13;;;9.38;;
29848;SDS011;16728;50.832;5.590;2023-09-07T08:20:18;14.68;;;9.77;;
29848;SDS011;16728;50.832;5.590;2023-09-07T08:23:20;15.88;;;9.70;;
29848;SDS011;16728;50.832;5.590;2023-09-07T08:26:23;13.27;;;9.10;;
29848;SDS011;16728;50.832;5.590;2023-09-07T08:29:25;14.05;;;9.15;;
29848;SDS011;16728;50.832;5.590;2023-09-07T08:32:28;11.93;;;9.48;;
29848;SDS011;16728;50.832;5.590;2023-09-07T08:35:31;14.38;;;9.30;;
29848;SDS011;16728;50.832;5.590;2023-09-07T08:38:36;13.07;;;8.20;;
29848;SDS011;16728;50.832;5.590;2023-09-07T08:41:40;13.13;;;7.13;;
29848;SDS011;16728;50.832;5.590;2023-09-07T08:45:01;11.30;;;6.88;;
29848;SDS011;16728;50.832;5.590;2023-09-07T08:48:08;16.00;;;7.05;;
29848;SDS011;16728;50.832;5.590;2023-09-07T08:51:18;11.40;;;6.03;;
29848;SDS011;16728;50.832;5.590;2023-09-07T08:54:21;9.88;;;5.45;;
29848;SDS011;16728;50.832;5.590;2023-09-07T08:57:24;9.75;;;6.00;;
29848;SDS011;16728;50.832;5.590;2023-09-07T09:00:27;13.05;;;5.90;;
29848;SDS011;16728;50.832;5.590;2023-09-07T09:03:32;9.80;;;5.28;;
29848;SDS011;16728;50.832;5.590;2023-09-07T09:06:36;7.38;;;5.55;;
29848;SDS011;16728;50.832;5.590;2023-09-07T09:09:38;9.47;;;5.27;;
29848;SDS011;16728;50.832;5.590;2023-09-07T09:12:46;7.32;;;4.60;;
29848;SDS011;16728;50.832;5.590;2023-09-07T09:15:48;9.55;;;4.30;;
29848;SDS011;16728;50.832;5.590;2023-09-07T09:18:51;7.22;;;4.60;;
29848;SDS011;16728;50.832;5.590;2023-09-07T09:21:57;6.95;;;4.03;;
29848;SDS011;16728;50.832;5.590;2023-09-07T09:25:02;7.45;;;4.43;;
29848;SDS011;16728;50.832;5.590;2023-09-07T09:28:06;7.05;;;4.80;;
29848;SDS011;16728;50.832;5.590;2023-09-07T09:31:10;7.53;;;4.60;;
29848;SDS011;16728;50.832;5.590;2023-09-07T09:34:14;9.02;;;4.68;;
29848;SDS011;16728;50.832;5.590;2023-09-07T09:37:17;4.75;;;3.83;;
29848;SDS011;16728;50.832;5.590;2023-09-07T09:40:20;4.68;;;4.07;;
29848;SDS011;16728;50.832;5.590;2023-09-07T09:43:22;8.63;;;4.13;;
29848;SDS011;16728;50.832;5.590;2023-09-07T09:46:28;5.90;;;4.40;;
29848;SDS011;16728;50.832;5.590;2023-09-07T09:49:33;9.80;;;4.93;;
29848;SDS011;16728;50.832;5.590;2023-09-07T09:52:37;7.07;;;4.75;;
29848;SDS011;16728;50.832;5.590;2023-09-07T09:55:39;6.87;;;4.53;;
29848;SDS011;16728;50.832;5.590;2023-09-07T09:58:41;7.28;;;4.47;;
29848;SDS011;16728;50.832;5.590;2023-09-07T10:01:44;9.13;;;4.57;;
29848;SDS011;16728;50.832;5.590;2023-09-07T10:04:47;8.27;;;4.90;;
29848;SDS011;16728;50.832;5.590;2023-09-07T10:07:51;8.48;;;4.97;;
29848;SDS011;16728;50.832;5.590;2023-09-07T10:11:07;6.97;;;4.68;;
29848;SDS011;16728;50.832;5.590;2023-09-07T10:14:13;6.78;;;4.20;;
29848;SDS011;16728;50.832;5.590;2023-09-07T10:20:25;7.85;;;4.53;;
29848;SDS011;16728;50.832;5.590;2023-09-07T10:26:38;5.75;;;3.70;;
29848;SDS011;16728;50.832;5.590;2023-09-07T10:29:46;5.65;;;4.35;;
29848;SDS011;16728;50.832;5.590;2023-09-07T10:32:57;5.47;;;3.70;;
29848;SDS011;16728;50.832;5.590;2023-09-07T10:36:00;4.20;;;3.43;;
29848;SDS011;16728;50.832;5.590;2023-09-07T10:39:05;5.63;;;3.30;;
29848;SDS011;16728;50.832;5.590;2023-09-07T10:42:08;5.68;;;3.88;;
29848;SDS011;16728;50.832;5.590;2023-09-07T10:45:10;3.95;;;3.28;;
29848;SDS011;16728;50.832;5.590;2023-09-07T10:48:15;5.85;;;3.33;;
29848;SDS011;16728;50.832;5.590;2023-09-07T10:51:18;4.22;;;3.83;;
29848;SDS011;16728;50.832;5.590;2023-09-07T10:54:23;7.00;;;3.57;;
29848;SDS011;16728;50.832;5.590;2023-09-07T10:57:29;6.35;;;3.42;;
29848;SDS011;16728;50.832;5.590;2023-09-07T11:00:40;6.18;;;3.03;;
29848;SDS011;16728;50.832;5.590;2023-09-07T11:03:42;4.05;;;3.10;;
29848;SDS011;16728;50.832;5.590;2023-09-07T11:06:54;4.33;;;3.23;;
29848;SDS011;16728;50.832;5.590;2023-09-07T11:09:56;4.45;;;3.25;;
29848;SDS011;16728;50.832;5.590;2023-09-07T11:13:01;6.28;;;3.60;;
29848;SDS011;16728;50.832;5.590;2023-09-07T11:16:08;5.05;;;3.72;;
29848;SDS011;16728;50.832;5.590;2023-09-07T11:19:11;5.13;;;3.00;;
29848;SDS011;16728;50.832;5.590;2023-09-07T11:22:16;3.95;;;3.22;;
29848;SDS011;16728;50.832;5.590;2023-09-07T11:25:25;5.93;;;3.60;;
29848;SDS011;16728;50.832;5.590;2023-09-07T11:28:40;6.47;;;3.83;;
29848;SDS011;16728;50.832;5.590;2023-09-07T11:31:43;5.38;;;3.60;;
29848;SDS011;16728;50.832;5.590;2023-09-07T11:34:47;4.47;;;3.53;;
29848;SDS011;16728;50.832;5.590;2023-09-07T11:37:56;4.80;;;3.80;;
29848;SDS011;16728;50.832;5.590;2023-09-07T11:41:00;3.85;;;3.50;;
29848;SDS011;16728;50.832;5.590;2023-09-07T11:44:05;6.75;;;3.58;;
29848;SDS011;16728;50.832;5.590;2023-09-07T11:47:07;5.35;;;3.55;;
29848;SDS011;16728;50.832;5.590;2023-09-07T11:50:10;6.60;;;3.63;;
29848;SDS011;16728;50.832;5.590;2023-09-07T11:53:13;6.65;;;3.90;;
29848;SDS011;16728;50.832;5.590;2023-09-07T11:56:18;4.50;;;4.10;;
29848;SDS011;16728;50.832;5.590;2023-09-07T11:59:23;5.97;;;4.05;;
29848;SDS011;16728;50.832;5.590;2023-09-07T12:02:25;6.80;;;4.23;;
29848;SDS011;16728;50.832;5.590;2023-09-07T12:05:38;6.05;;;3.38;;
29848;SDS011;16728;50.832;5.590;2023-09-07T12:08:47;8.68;;;3.72;;
29848;SDS011;16728;50.832;5.590;2023-09-07T12:12:00;4.40;;;4.00;;
29848;SDS011;16728;50.832;5.590;2023-09-07T12:15:02;6.20;;;3.78;;
29848;SDS011;16728;50.832;5.590;2023-09-07T12:18:06;4.57;;;4.00;;
29848;SDS011;16728;50.832;5.590;2023-09-07T12:21:09;6.00;;;3.97;;
29848;SDS011;16728;50.832;5.590;2023-09-07T12:24:11;8.57;;;4.33;;
29848;SDS011;16728;50.832;5.590;2023-09-07T12:27:14;8.60;;;4.05;;
29848;SDS011;16728;50.832;5.590;2023-09-07T12:30:15;8.93;;;4.65;;
29848;SDS011;16728;50.832;5.590;2023-09-07T12:33:21;8.90;;;4.35;;
29848;SDS011;16728;50.832;5.590;2023-09-07T12:36:24;8.23;;;4.60;;
29848;SDS011;16728;50.832;5.590;2023-09-07T12:39:29;6.35;;;4.63;;
29848;SDS011;16728;50.832;5.590;2023-09-07T12:45:48;5.25;;;4.13;;
29848;SDS011;16728;50.832;5.590;2023-09-07T12:48:50;9.88;;;4.85;;
29848;SDS011;16728;50.832;5.590;2023-09-07T12:51:52;6.65;;;4.30;;
29848;SDS011;16728;50.832;5.590;2023-09-07T12:54:55;7.13;;;4.30;;
29848;SDS011;16728;50.832;5.590;2023-09-07T12:57:57;9.63;;;4.55;;
29848;SDS011;16728;50.832;5.590;2023-09-07T13:01:02;6.72;;;4.10;;
29848;SDS011;16728;50.832;5.590;2023-09-07T13:04:04;8.40;;;4.20;;
29848;SDS011;16728;50.832;5.590;2023-09-07T13:07:06;6.63;;;5.03;;
29848;SDS011;16728;50.832;5.590;2023-09-07T13:10:08;5.33;;;3.97;;
29848;SDS011;16728;50.832;5.590;2023-09-07T13:13:12;4.80;;;4.13;;
29848;SDS011;16728;50.832;5.590;2023-09-07T13:16:14;9.70;;;4.40;;
29848;SDS011;16728;50.832;5.590;2023-09-07T13:19:17;8.90;;;4.68;;
29848;SDS011;16728;50.832;5.590;2023-09-07T13:22:19;6.70;;;4.30;;
29848;SDS011;16728;50.832;5.590;2023-09-07T13:25:21;9.13;;;4.20;;
29848;SDS011;16728;50.832;5.590;2023-09-07T13:28:23;10.15;;;4.15;;
29848;SDS011;16728;50.832;5.590;2023-09-07T13:31:25;5.33;;;4.10;;
29848;SDS011;16728;50.832;5.590;2023-09-07T13:34:27;6.30;;;4.00;;
29848;SDS011;16728;50.832;5.590;2023-09-07T13:37:29;8.02;;;4.22;;
29848;SDS011;16728;50.832;5.590;2023-09-07T13:40:32;11.48;;;4.10;;
29848;SDS011;16728;50.832;5.590;2023-09-07T13:43:34;6.45;;;4.10;;
29848;SDS011;16728;50.832;5.590;2023-09-07T13:46:36;10.02;;;5.05;;
29848;SDS011;16728;50.832;5.590;2023-09-07T13:49:38;6.40;;;4.53;;
29848;SDS011;16728;50.832;5.590;2023-09-07T13:52:41;7.60;;;4.28;;
29848;SDS011;16728;50.832;5.590;2023-09-07T13:55:42;5.05;;;4.18;;
29848;SDS011;16728;50.832;5.590;2023-09-07T13:58:48;4.30;;;3.58;;
29848;SDS011;16728;50.832;5.590;2023-09-07T14:01:50;7.72;;;3.80;;
29848;SDS011;16728;50.832;5.590;2023-09-07T14:04:53;4.63;;;3.65;;
29848;SDS011;16728;50.832;5.590;2023-09-07T14:07:55;5.18;;;3.83;;
29848;SDS011;16728;50.832;5.590;2023-09-07T14:10:58;6.35;;;4.00;;
29848;SDS011;16728;50.832;5.590;2023-09-07T14:14:01;7.22;;;3.67;;
29848;SDS011;16728;50.832;5.590;2023-09-07T14:17:03;8.60;;;3.40;;
29848;SDS011;16728;50.832;5.590;2023-09-07T14:20:06;4.53;;;3.42;;
29848;SDS011;16728;50.832;5.590;2023-09-07T14:23:08;7.63;;;3.70;;
29848;SDS011;16728;50.832;5.590;2023-09-07T14:26:10;6.63;;;3.65;;
29848;SDS011;16728;50.832;5.590;2023-09-07T14:29:12;4.97;;;3.58;;
29848;SDS011;16728;50.832;5.590;2023-09-07T14:32:15;5.85;;;3.38;;
29848;SDS011;16728;50.832;5.590;2023-09-07T14:35:17;8.63;;;3.85;;
29848;SDS011;16728;50.832;5.590;2023-09-07T14:38:19;6.57;;;3.50;;
29848;SDS011;16728;50.832;5.590;2023-09-07T14:41:21;5.57;;;3.30;;
29848;SDS011;16728;50.832;5.590;2023-09-07T14:44:24;8.90;;;3.55;;
29848;SDS011;16728;50.832;5.590;2023-09-07T14:47:25;5.70;;;3.53;;
29848;SDS011;16728;50.832;5.590;2023-09-07T14:50:27;7.45;;;3.88;;
29848;SDS011;16728;50.832;5.590;2023-09-07T14:53:30;5.95;;;3.60;;
29848;SDS011;16728;50.832;5.590;2023-09-07T14:56:33;6.03;;;3.70;;
29848;SDS011;16728;50.832;5.590;2023-09-07T14:59:36;5.43;;;3.80;;
29848;SDS011;16728;50.832;5.590;2023-09-07T15:02:41;4.65;;;4.10;;
29848;SDS011;16728;50.832;5.590;2023-09-07T15:05:43;6.90;;;3.80;;
29848;SDS011;16728;50.832;5.590;2023-09-07T15:08:45;3.60;;;3.25;;
29848;SDS011;16728;50.832;5.590;2023-09-07T15:11:47;4.97;;;4.13;;
29848;SDS011;16728;50.832;5.590;2023-09-07T15:14:49;5.22;;;3.58;;
29848;SDS011;16728;50.832;5.590;2023-09-07T15:17:51;11.27;;;3.78;;
29848;SDS011;16728;50.832;5.590;2023-09-07T15:20:53;8.30;;;3.72;;
29848;SDS011;16728;50.832;5.590;2023-09-07T15:23:56;6.90;;;3.75;;
29848;SDS011;16728;50.832;5.590;2023-09-07T15:26:59;5.93;;;3.58;;
29848;SDS011;16728;50.832;5.590;2023-09-07T15:30:12;6.22;;;3.70;;
29848;SDS011;16728;50.832;5.590;2023-09-07T15:33:14;7.15;;;3.72;;
29848;SDS011;16728;50.832;5.590;2023-09-07T15:36:16;7.68;;;3.70;;
29848;SDS011;16728;50.832;5.590;2023-09-07T15:39:18;7.38;;;3.78;;
29848;SDS011;16728;50.832;5.590;2023-09-07T15:42:20;8.95;;;3.83;;
29848;SDS011;16728;50.832;5.590;2023-09-07T15:45:23;7.20;;;3.40;;
29848;SDS011;16728;50.832;5.590;2023-09-07T15:48:25;8.35;;;3.47;;
29848;SDS011;16728;50.832;5.590;2023-09-07T15:51:27;6.35;;;3.58;;
29848;SDS011;16728;50.832;5.590;2023-09-07T15:54:29;14.13;;;3.95;;
29848;SDS011;16728;50.832;5.590;2023-09-07T15:57:32;6.63;;;3.93;;
29848;SDS011;16728;50.832;5.590;2023-09-07T16:00:34;7.20;;;3.70;;
29848;SDS011;16728;50.832;5.590;2023-09-07T16:03:54;4.88;;;3.30;;
29848;SDS011;16728;50.832;5.590;2023-09-07T16:06:56;5.80;;;3.63;;
29848;SDS011;16728;50.832;5.590;2023-09-07T16:09:58;3.78;;;3.38;;
29848;SDS011;16728;50.832;5.590;2023-09-07T16:13:00;14.40;;;4.15;;
29848;SDS011;16728;50.832;5.590;2023-09-07T16:16:02;7.68;;;3.90;;
29848;SDS011;16728;50.832;5.590;2023-09-07T16:19:04;6.90;;;3.78;;
29848;SDS011;16728;50.832;5.590;2023-09-07T16:22:07;6.78;;;3.22;;
29848;SDS011;16728;50.832;5.590;2023-09-07T16:25:10;7.10;;;3.60;;
29848;SDS011;16728;50.832;5.590;2023-09-07T16:28:12;6.13;;;3.80;;
29848;SDS011;16728;50.832;5.590;2023-09-07T16:31:14;8.13;;;3.97;;
29848;SDS011;16728;50.832;5.590;2023-09-07T16:34:17;6.47;;;3.50;;
29848;SDS011;16728;50.832;5.590;2023-09-07T16:37:19;3.72;;;3.35;;
29848;SDS011;16728;50.832;5.590;2023-09-07T16:40:34;9.55;;;4.07;;
29848;SDS011;16728;50.832;5.590;2023-09-07T16:47:31;6.38;;;3.95;;
29848;SDS011;16728;50.832;5.590;2023-09-07T16:50:33;10.38;;;4.22;;
29848;SDS011;16728;50.832;5.590;2023-09-07T16:53:35;6.22;;;3.70;;
29848;SDS011;16728;50.832;5.590;2023-09-07T16:56:38;8.02;;;3.80;;
29848;SDS011;16728;50.832;5.590;2023-09-07T16:59:40;11.15;;;4.15;;
29848;SDS011;16728;50.832;5.590;2023-09-07T17:02:46;9.85;;;4.25;;
29848;SDS011;16728;50.832;5.590;2023-09-07T17:05:48;8.43;;;4.10;;
29848;SDS011;16728;50.832;5.590;2023-09-07T17:08:50;8.05;;;4.15;;
29848;SDS011;16728;50.832;5.590;2023-09-07T17:11:52;5.10;;;4.13;;
29848;SDS011;16728;50.832;5.590;2023-09-07T17:14:54;8.85;;;4.18;;
29848;SDS011;16728;50.832;5.590;2023-09-07T17:17:57;14.23;;;4.25;;
29848;SDS011;16728;50.832;5.590;2023-09-07T17:21:03;10.68;;;4.43;;
29848;SDS011;16728;50.832;5.590;2023-09-07T17:24:07;12.68;;;5.43;;
29848;SDS011;16728;50.832;5.590;2023-09-07T17:27:09;10.38;;;5.45;;
29848;SDS011;16728;50.832;5.590;2023-09-07T17:30:11;28.15;;;17.00;;
29848;SDS011;16728;50.832;5.590;2023-09-07T17:33:14;22.60;;;14.20;;
29848;SDS011;16728;50.832;5.590;2023-09-07T17:36:16;15.13;;;10.27;;
29848;SDS011;16728;50.832;5.590;2023-09-07T17:39:19;18.60;;;9.98;;
29848;SDS011;16728;50.832;5.590;2023-09-07T17:42:22;17.65;;;8.93;;
29848;SDS011;16728;50.832;5.590;2023-09-07T17:45:24;15.73;;;7.40;;
29848;SDS011;16728;50.832;5.590;2023-09-07T17:48:26;15.38;;;5.30;;
29848;SDS011;16728;50.832;5.590;2023-09-07T17:51:28;6.93;;;4.57;;
29848;SDS011;16728;50.832;5.590;2023-09-07T17:54:31;6.10;;;4.87;;
29848;SDS011;16728;50.832;5.590;2023-09-07T17:57:33;9.07;;;4.70;;
29848;SDS011;16728;50.832;5.590;2023-09-07T18:00:35;6.13;;;4.20;;
29848;SDS011;16728;50.832;5.590;2023-09-07T18:03:37;7.57;;;4.40;;
29848;SDS011;16728;50.832;5.590;2023-09-07T18:06:42;7.45;;;4.55;;
29848;SDS011;16728;50.832;5.590;2023-09-07T18:09:44;7.30;;;4.40;;
29848;SDS011;16728;50.832;5.590;2023-09-07T18:12:46;7.07;;;4.50;;
29848;SDS011;16728;50.832;5.590;2023-09-07T18:15:48;7.90;;;4.55;;
29848;SDS011;16728;50.832;5.590;2023-09-07T18:18:50;6.10;;;4.28;;
29848;SDS011;16728;50.832;5.590;2023-09-07T18:21:53;7.88;;;4.50;;
29848;SDS011;16728;50.832;5.590;2023-09-07T18:24:55;6.17;;;4.27;;
29848;SDS011;16728;50.832;5.590;2023-09-07T18:27:59;6.05;;;4.38;;
29848;SDS011;16728;50.832;5.590;2023-09-07T18:31:01;6.53;;;4.30;;
29848;SDS011;16728;50.832;5.590;2023-09-07T18:34:09;8.18;;;4.82;;